Time,TemperatureF,DewpointF,PressureIn,WindDirection,WindDirectionDegrees,WindSpeedMPH,WindSpeedGustMPH,Humidity,HourlyPrecipIn,Conditions,Clouds,dailyrainin,SoftwareType,DateUTC
2013-01-23 00:12:00,58.7,18.0,30.08,East,80,3.0,-999.0,20,-99.99,,,0.00,weatherlink.com 1.10,2013-01-23 08:12:00,
2013-01-23 00:27:00,58.7,18.0,30.07,East,94,3.0,-999.0,20,-99.99,,,0.00,weatherlink.com 1.10,2013-01-23 08:27:00,
2013-01-23 00:42:00,58.9,19.0,30.07,ENE,78,0.0,-999.0,21,-99.99,,,0.00,weatherlink.com 1.10,2013-01-23 08:42:00,
2013-01-23 00:57:00,58.3,17.0,30.07,ENE,78,1.0,-999.0,20,-99.99,,,0.00,weatherlink.com 1.10,2013-01-23 08:57:00,
2013-01-23 01:12:00,58.6,17.0,30.07,ENE,77,0.0,-999.0,20,-99.99,,,0.00,weatherlink.com 1.10,2013-01-23 09:12:00,
2013-01-23 01:27:00,59.0,18.0,30.06,East,88,0.0,-999.0,20,-99.99,,,0.00,weatherlink.com 1.10,2013-01-23 09:27:00,
2013-01-23 01:42:00,58.8,18.0,30.06,East,79,0.0,-999.0,20,-99.99,,,0.00,weatherlink.com 1.10,2013-01-23 09:42:00,
2013-01-23 01:57:00,58.3,19.0,30.05,East,92,0.0,-999.0,22,-99.99,,,0.00,weatherlink.com 1.10,2013-01-23 09:57:00,
2013-01-23 02:12:00,59.0,18.0,30.06,East,93,0.0,-999.0,20,-99.99,,,0.00,weatherlink.com 1.10,2013-01-23 10:12:00,
2013-01-23 02:27:00,59.0,19.0,30.06,ENE,78,2.0,-999.0,21,-99.99,,,0.00,weatherlink.com 1.10,2013-01-23 10:27:00,
2013-01-23 02:42:00,58.3,20.0,30.05,East,86,0.0,-999.0,23,-99.99,,,0.00,weatherlink.com 1.10,2013-01-23 10:42:00,
2013-01-23 02:57:00,59.0,21.0,30.05,ENE,78,0.0,-999.0,23,-99.99,,,0.00,weatherlink.com 1.10,2013-01-23 10:57:00,
2013-01-23 03:12:00,58.8,22.0,30.05,ENE,71,0.0,-999.0,24,-99.99,,,0.00,weatherlink.com 1.10,2013-01-23 11:12:00,
2013-01-23 03:27:00,58.5,22.0,30.05,East,81,1.0,-999.0,24,-99.99,,,0.00,weatherlink.com 1.10,2013-01-23 11:27:00,
2013-01-23 03:42:00,58.6,21.0,30.04,East,94,0.0,-999.0,23,-99.99,,,0.00,weatherlink.com 1.10,2013-01-23 11:42:00,
2013-01-23 03:57:00,59.0,20.0,30.04,East,92,0.0,-999.0,22,-99.99,,,0.00,weatherlink.com 1.10,2013-01-23 11:57:00,
2013-01-23 04:12:00,58.8,22.0,30.02,East,87,0.0,-999.0,24,-99.99,,,0.00,weatherlink.com 1.10,2013-01-23 12:12:00,
2013-01-23 04:27:00,58.6,20.0,30.03,ESE,103,0.0,-999.0,22,-99.99,,,0.00,weatherlink.com 1.10,2013-01-23 12:27:00,
2013-01-23 04:42:00,58.5,21.0,30.01,ENE,76,0.0,-999.0,23,-99.99,,,0.00,weatherlink.com 1.10,2013-01-23 12:42:00,
2013-01-23 05:12:00,58.3,19.0,30.02,East,90,2.0,-999.0,22,-99.99,,,0.00,weatherlink.com 1.10,2013-01-23 13:12:00,
2013-01-23 05:27:00,57.8,20.0,30.03,East,84,0.0,-999.0,23,-99.99,,,0.00,weatherlink.com 1.10,2013-01-23 13:27:00,
2013-01-23 05:42:00,57.8,19.0,30.04,ESE,107,0.0,-999.0,22,-99.99,,,0.00,weatherlink.com 1.10,2013-01-23 13:42:00,
2013-01-23 05:57:00,57.9,20.0,30.02,East,99,2.0,-999.0,23,-99.99,,,0.00,weatherlink.com 1.10,2013-01-23 13:57:00,
2013-01-23 06:12:00,58.1,20.0,30.03,ESE,102,0.0,-999.0,23,-99.99,,,0.00,weatherlink.com 1.10,2013-01-23 14:12:00,
2013-01-23 06:27:00,57.8,20.0,30.06,ESE,118,0.0,-999.0,23,-99.99,,,0.00,weatherlink.com 1.10,2013-01-23 14:27:00,
2013-01-23 06:42:00,56.5,21.0,30.07,East,82,0.0,-999.0,25,-99.99,,,0.00,weatherlink.com 1.10,2013-01-23 14:42:00,
2013-01-23 06:57:00,55.1,20.0,30.07,East,100,0.0,-999.0,25,-99.99,,,0.00,weatherlink.com 1.10,2013-01-23 14:57:00,
2013-01-23 07:12:00,55.3,19.0,30.08,SE,130,1.0,-999.0,24,-99.99,,,0.00,weatherlink.com 1.10,2013-01-23 15:12:00,
2013-01-23 07:27:00,54.9,22.0,30.07,NE,55,0.0,-999.0,28,-99.99,,,0.00,weatherlink.com 1.10,2013-01-23 15:27:00,
2013-01-23 07:42:00,55.1,20.0,30.07,ESE,103,2.0,-999.0,25,-99.99,,,0.00,weatherlink.com 1.10,2013-01-23 15:42:00,
2013-01-23 07:57:00,56.2,20.0,30.07,ESE,111,0.0,-999.0,24,-99.99,,,0.00,weatherlink.com 1.10,2013-01-23 15:57:00,
2013-01-23 08:12:00,56.8,21.0,30.08,ESE,117,0.0,-999.0,25,-99.99,,,0.00,weatherlink.com 1.10,2013-01-23 16:12:00,
2013-01-23 08:27:00,57.2,22.0,30.06,ENE,75,0.0,-999.0,26,-99.99,,,0.00,weatherlink.com 1.10,2013-01-23 16:27:00,
2013-01-23 08:42:00,57.7,22.0,30.05,ENE,68,1.0,-999.0,25,-99.99,,,0.00,weatherlink.com 1.10,2013-01-23 16:42:00,
2013-01-23 08:57:00,59.0,21.0,30.06,East,91,1.0,-999.0,23,-99.99,,,0.00,weatherlink.com 1.10,2013-01-23 16:57:00,
2013-01-23 09:12:00,60.4,20.0,30.07,East,92,2.0,-999.0,21,-99.99,,,0.00,weatherlink.com 1.10,2013-01-23 17:12:00,
2013-01-23 09:27:00,60.8,23.0,30.08,East,81,1.0,-999.0,23,-99.99,,,0.00,weatherlink.com 1.10,2013-01-23 17:27:00,
2013-01-23 09:42:00,60.9,22.0,30.08,East,86,1.0,-999.0,22,-99.99,,,0.00,weatherlink.com 1.10,2013-01-23 17:42:00,
2013-01-23 09:57:00,61.6,20.0,30.08,ESE,106,4.0,-999.0,20,-99.99,,,0.00,weatherlink.com 1.10,2013-01-23 17:57:00,
2013-01-23 10:12:00,62.8,21.0,30.09,NE,51,6.0,-999.0,20,-99.99,,,0.00,weatherlink.com 1.10,2013-01-23 18:12:00,
2013-01-23 10:27:00,63.1,21.0,30.08,East,96,1.0,-999.0,20,-99.99,,,0.00,weatherlink.com 1.10,2013-01-23 18:27:00,
2013-01-23 10:42:00,63.0,25.0,30.07,East,84,2.0,-999.0,24,-99.99,,,0.00,weatherlink.com 1.10,2013-01-23 18:42:00,
2013-01-23 10:57:00,62.7,34.0,30.06,NNE,13,10.0,-999.0,34,-99.99,,,0.00,weatherlink.com 1.10,2013-01-23 18:57:00,
2013-01-23 11:12:00,63.3,40.0,30.05,ESE,108,10.0,-999.0,42,-99.99,,,0.00,weatherlink.com 1.10,2013-01-23 19:12:00,
2013-01-23 11:27:00,65.0,42.0,30.04,ENE,75,3.0,-999.0,43,-99.99,,,0.00,weatherlink.com 1.10,2013-01-23 19:27:00,
2013-01-23 11:42:00,66.4,41.0,30.04,ESE,115,11.0,-999.0,39,-99.99,,,0.00,weatherlink.com 1.10,2013-01-23 19:42:00,
2013-01-23 11:57:00,65.1,40.0,30.04,SE,133,0.0,-999.0,40,-99.99,,,0.00,weatherlink.com 1.10,2013-01-23 19:57:00,
2013-01-23 12:12:00,63.8,38.0,30.03,SE,130,0.0,-999.0,38,-99.99,,,0.00,weatherlink.com 1.10,2013-01-23 20:12:00,
2013-01-23 12:27:00,63.5,37.0,30.03,SE,130,0.0,-999.0,38,-99.99,,,0.00,weatherlink.com 1.10,2013-01-23 20:27:00,
2013-01-23 12:42:00,61.5,37.0,30.05,West,264,0.0,-999.0,40,-99.99,,,0.00,weatherlink.com 1.10,2013-01-23 20:42:00,
2013-01-23 12:57:00,59.0,30.0,30.07,SW,223,0.0,-999.0,34,-99.99,,,0.00,weatherlink.com 1.10,2013-01-23 20:57:00,
2013-01-23 13:12:00,58.1,34.0,30.07,SE,146,0.0,-999.0,40,-99.99,,,0.00,weatherlink.com 1.10,2013-01-23 21:12:00,
2013-01-23 13:27:00,57.3,32.0,30.05,East,86,0.0,-999.0,39,-99.99,,,0.00,weatherlink.com 1.10,2013-01-23 21:27:00,
2013-01-23 13:42:00,57.7,33.0,30.05,SE,132,2.0,-999.0,39,-99.99,,,0.00,weatherlink.com 1.10,2013-01-23 21:42:00,
2013-01-23 13:57:00,57.3,33.0,30.05,ENE,57,3.0,-999.0,40,-99.99,,,0.00,weatherlink.com 1.10,2013-01-23 21:57:00,
2013-01-23 14:12:00,56.0,34.0,30.04,East,84,0.0,-999.0,44,-99.99,,,0.00,weatherlink.com 1.10,2013-01-23 22:12:00,
2013-01-23 14:27:00,54.4,35.0,30.05,ENE,77,3.0,-999.0,48,-99.99,,,0.00,weatherlink.com 1.10,2013-01-23 22:27:00,
2013-01-23 14:42:00,54.0,34.0,30.08,East,100,1.0,-999.0,48,-99.99,,,0.00,weatherlink.com 1.10,2013-01-23 22:42:00,
2013-01-23 14:57:00,54.2,35.0,30.08,ESE,111,4.0,-999.0,48,-99.99,,,0.00,weatherlink.com 1.10,2013-01-23 22:57:00,
2013-01-23 15:12:00,54.5,34.0,30.07,NE,42,0.0,-999.0,46,-99.99,,,0.00,weatherlink.com 1.10,2013-01-23 23:12:00,
2013-01-23 15:27:00,55.0,34.0,30.07,NE,51,7.0,-999.0,46,-99.99,,,0.00,weatherlink.com 1.10,2013-01-23 23:27:00,
2013-01-23 15:42:00,54.8,35.0,30.06,ENE,59,0.0,-999.0,48,-99.99,,,0.00,weatherlink.com 1.10,2013-01-23 23:42:00,
2013-01-23 15:57:00,55.1,32.0,30.06,ESE,102,0.0,-999.0,41,-99.99,,,0.00,weatherlink.com 1.10,2013-01-23 23:57:00,
2013-01-23 16:12:00,55.3,32.0,30.05,East,101,0.0,-999.0,41,-99.99,,,0.00,weatherlink.com 1.10,2013-01-24 00:12:00,
2013-01-23 16:27:00,55.0,31.0,30.06,SE,133,4.0,-999.0,41,-99.99,,,0.00,weatherlink.com 1.10,2013-01-24 00:27:00,
2013-01-23 16:42:00,54.0,33.0,30.08,ESE,115,0.0,-999.0,45,-99.99,,,0.00,weatherlink.com 1.10,2013-01-24 00:42:00,
2013-01-23 16:57:00,52.9,35.0,30.10,SE,135,0.0,-999.0,52,-99.99,,,0.00,weatherlink.com 1.10,2013-01-24 00:57:00,
2013-01-23 17:12:00,51.5,37.0,30.10,SE,125,0.0,-999.0,57,-99.99,,,0.00,weatherlink.com 1.10,2013-01-24 01:12:00,
2013-01-23 17:27:00,50.8,38.0,30.11,ESE,123,0.0,-999.0,62,-99.99,,,0.00,weatherlink.com 1.10,2013-01-24 01:27:00,
2013-01-23 17:42:00,50.1,39.0,30.09,East,83,0.0,-999.0,66,-99.99,,,0.00,weatherlink.com 1.10,2013-01-24 01:42:00,
2013-01-23 17:57:00,49.4,39.0,30.10,East,84,0.0,-999.0,68,-99.99,,,0.00,weatherlink.com 1.10,2013-01-24 01:57:00,
2013-01-23 18:12:00,48.5,40.0,30.10,East,84,0.0,-999.0,72,-99.99,,,0.01,weatherlink.com 1.10,2013-01-24 02:12:00,
2013-01-23 18:27:00,47.9,40.0,30.10,East,84,0.0,-999.0,75,-99.99,,,0.01,weatherlink.com 1.10,2013-01-24 02:27:00,
2013-01-23 18:42:00,47.6,41.0,30.10,East,84,0.0,-999.0,78,-99.99,,,0.01,weatherlink.com 1.10,2013-01-24 02:42:00,
2013-01-23 18:57:00,47.0,41.0,30.09,East,84,0.0,-999.0,81,-99.99,,,0.02,weatherlink.com 1.10,2013-01-24 02:57:00,
2013-01-23 19:12:00,46.7,42.0,30.10,East,84,0.0,-999.0,83,-99.99,,,0.03,weatherlink.com 1.10,2013-01-24 03:12:00,
2013-01-23 19:27:00,46.3,42.0,30.09,East,84,0.0,-999.0,84,-99.99,,,0.04,weatherlink.com 1.10,2013-01-24 03:27:00,
2013-01-23 19:42:00,46.8,43.0,30.07,East,88,0.0,-999.0,86,-99.99,,,0.05,weatherlink.com 1.10,2013-01-24 03:42:00,
2013-01-23 19:57:00,49.6,44.0,30.07,East,91,0.0,-999.0,82,-99.99,,,0.05,weatherlink.com 1.10,2013-01-24 03:57:00,
2013-01-23 20:12:00,51.3,44.0,30.06,East,96,0.0,-999.0,75,-99.99,,,0.05,weatherlink.com 1.10,2013-01-24 04:12:00,
2013-01-23 20:27:00,51.0,43.0,30.07,ENE,69,3.0,-999.0,75,-99.99,,,0.05,weatherlink.com 1.10,2013-01-24 04:27:00,
2013-01-23 20:42:00,50.9,43.0,30.09,ESE,118,0.0,-999.0,74,-99.99,,,0.06,weatherlink.com 1.10,2013-01-24 04:42:00,
2013-01-23 20:57:00,49.4,43.0,30.08,East,88,0.0,-999.0,78,-99.99,,,0.06,weatherlink.com 1.10,2013-01-24 04:57:00,
2013-01-23 21:12:00,49.6,44.0,30.07,ENE,57,0.0,-999.0,81,-99.99,,,0.07,weatherlink.com 1.10,2013-01-24 05:12:00,
2013-01-23 21:27:00,49.7,44.0,30.06,ENE,57,0.0,-999.0,81,-99.99,,,0.07,weatherlink.com 1.10,2013-01-24 05:27:00,
2013-01-23 21:42:00,49.8,45.0,30.06,SE,130,0.0,-999.0,82,-99.99,,,0.07,weatherlink.com 1.10,2013-01-24 05:42:00,
2013-01-23 21:57:00,49.6,44.0,30.07,SE,130,0.0,-999.0,80,-99.99,,,0.07,weatherlink.com 1.10,2013-01-24 05:57:00,
2013-01-23 22:12:00,48.7,43.0,30.06,NE,52,4.0,-999.0,81,-99.99,,,0.08,weatherlink.com 1.10,2013-01-24 06:12:00,
2013-01-23 22:27:00,50.9,44.0,30.06,East,81,0.0,-999.0,78,-99.99,,,0.08,weatherlink.com 1.10,2013-01-24 06:27:00,
2013-01-23 22:42:00,52.3,44.0,30.06,East,86,1.0,-999.0,74,-99.99,,,0.08,weatherlink.com 1.10,2013-01-24 06:42:00,
2013-01-23 22:57:00,53.9,44.0,30.05,ESE,103,5.0,-999.0,69,-99.99,,,0.08,weatherlink.com 1.10,2013-01-24 06:57:00,
2013-01-23 23:12:00,55.2,44.0,30.06,ESE,122,4.0,-999.0,65,-99.99,,,0.08,weatherlink.com 1.10,2013-01-24 07:12:00,
2013-01-23 23:27:00,55.6,43.0,30.06,ESE,109,4.0,-999.0,63,-99.99,,,0.08,weatherlink.com 1.10,2013-01-24 07:27:00,
2013-01-23 23:42:00,55.8,42.0,30.05,East,94,4.0,-999.0,61,-99.99,,,0.08,weatherlink.com 1.10,2013-01-24 07:42:00,
2013-01-23 23:57:00,56.4,42.0,30.05,East,80,9.0,-999.0,59,-99.99,,,0.08,weatherlink.com 1.10,2013-01-24 07:57:00,